Etusivu
METAR-TAF:

METAR-TAF

Lentoasemat :

Florianópolis, Santa Catarina, Brasilia

Leveyspiiri: 27-40S, Pituuspiiri: 048-33W, korkeus merenpinnasta: 5 m

Tämänhetkinen sää

Tämä raportti tehtiin 19 minuuttia sitten, kello 07.00 UTC
tyyntä
Lämpötila 16°C
Kosteus 94%
Ilmanpaine 1019 hPa
Näkyvyys 10 km tai enemmän
Muutamia pilviä 4000 ft:n korkeudessa

METAR: SBFL 240700Z 00000KT 9999 FEW040 16/15 Q1019

Aika: 04:19 (07:19 UTC)

Sääennuste

Tämä raportti tehtiin 5 tuntia ja 49 minuuttia sitten, kello 01.30 UTC
Ennuste voimassa 24. päivästä klo 06 UTC - 25. päivään klo 06 UTC
Tuuli 12 kn pohjoisesta/koillisesta
Näkyvyys 10 km tai enemmän
Muutamia pilviä 3000 ft:n korkeudessa

TAF: SBFL 240130Z 2406/2506 03012KT 9999 FEW030 TN18/2409Z TX26/2418Z RMK PEB

Säähavainnot ja -ennusteet yli 4000 lentoasemalta (METAR- ja TAF-raportit).

Käytössä olevat sääasemat on merkitty karttaan keltaisilla ja punaisilla pisteillä.

Aseta hiiri pisteen päälle nähdäksesi sääaseman nimen.

Klikkaa sitten nähdäksesi säähavainnot ja -ennusteet.

Kartan vaihtaminen: klikkaa mustalla rastilla varustettuja vihreitä pisteitä, niin voit zoomata sisään; viivalla varustettua vihreää pistettä, niin voit zoomata ulos tai vihreitä nuolia, niin pääset viereisille kartoille.


METAR-TAF: